sensor_id;sensor_type;location;lat;lon;timestamp;P1;durP1;ratioP1;P2;durP2;ratioP2
55310;SDS011;41173;52.634;-8.666;2024-02-04T00:00:05;0.00;;;0.00;;
55310;SDS011;41173;52.634;-8.666;2024-02-04T00:02:31;0.00;;;0.00;;
55310;SDS011;41173;52.634;-8.666;2024-02-04T00:04:56;0.00;;;0.00;;
55310;SDS011;41173;52.634;-8.666;2024-02-04T00:07:21;0.00;;;0.00;;
55310;SDS011;41173;52.634;-8.666;2024-02-04T00:09:47;0.00;;;0.00;;
55310;SDS011;41173;52.634;-8.666;2024-02-04T00:12:12;0.00;;;0.00;;
55310;SDS011;41173;52.634;-8.666;2024-02-04T00:14:38;0.00;;;0.00;;
55310;SDS011;41173;52.634;-8.666;2024-02-04T00:17:03;0.00;;;0.00;;
55310;SDS011;41173;52.634;-8.666;2024-02-04T00:19:29;0.00;;;0.00;;
55310;SDS011;41173;52.634;-8.666;2024-02-04T00:21:54;0.00;;;0.00;;
55310;SDS011;41173;52.634;-8.666;2024-02-04T00:24:20;0.00;;;0.00;;
55310;SDS011;41173;52.634;-8.666;2024-02-04T00:26:45;0.00;;;0.00;;
55310;SDS011;41173;52.634;-8.666;2024-02-04T00:29:11;0.00;;;0.00;;
55310;SDS011;41173;52.634;-8.666;2024-02-04T00:31:36;0.00;;;0.00;;
55310;SDS011;41173;52.634;-8.666;2024-02-04T00:34:01;0.00;;;0.00;;
55310;SDS011;41173;52.634;-8.666;2024-02-04T00:36:28;0.00;;;0.00;;
55310;SDS011;41173;52.634;-8.666;2024-02-04T00:38:53;0.00;;;0.00;;
55310;SDS011;41173;52.634;-8.666;2024-02-04T00:41:19;0.00;;;0.00;;
55310;SDS011;41173;52.634;-8.666;2024-02-04T00:43:44;0.00;;;0.00;;
55310;SDS011;41173;52.634;-8.666;2024-02-04T00:46:09;0.00;;;0.00;;
55310;SDS011;41173;52.634;-8.666;2024-02-04T00:48:36;0.00;;;0.00;;
55310;SDS011;41173;52.634;-8.666;2024-02-04T00:51:02;0.00;;;0.00;;
55310;SDS011;41173;52.634;-8.666;2024-02-04T00:53:28;0.00;;;0.00;;
55310;SDS011;41173;52.634;-8.666;2024-02-04T00:55:59;0.00;;;0.00;;
55310;SDS011;41173;52.634;-8.666;2024-02-04T00:58:27;0.00;;;0.00;;
55310;SDS011;41173;52.634;-8.666;2024-02-04T16:44:41;0.10;;;0.08;;
55310;SDS011;41173;52.634;-8.666;2024-02-04T16:47:11;0.10;;;0.00;;
55310;SDS011;41173;52.634;-8.666;2024-02-04T16:49:50;0.25;;;0.10;;
55310;SDS011;41173;52.634;-8.666;2024-02-04T16:52:19;0.82;;;0.20;;
55310;SDS011;41173;52.634;-8.666;2024-02-04T16:54:45;0.28;;;0.10;;
55310;SDS011;41173;52.634;-8.666;2024-02-04T16:57:15;0.20;;;0.10;;
55310;SDS011;41173;52.634;-8.666;2024-02-04T16:59:47;0.60;;;0.25;;
55310;SDS011;41173;52.634;-8.666;2024-02-04T17:04:50;0.47;;;0.20;;
55310;SDS011;41173;52.634;-8.666;2024-02-04T17:07:20;0.20;;;0.10;;
55310;SDS011;41173;52.634;-8.666;2024-02-04T17:09:49;0.93;;;0.20;;
55310;SDS011;41173;52.634;-8.666;2024-02-04T17:12:16;0.15;;;0.13;;
55310;SDS011;41173;52.634;-8.666;2024-02-04T17:14:58;0.50;;;0.30;;
55310;SDS011;41173;52.634;-8.666;2024-02-04T17:17:24;0.75;;;0.10;;
55310;SDS011;41173;52.634;-8.666;2024-02-04T17:22:46;0.47;;;0.20;;
55310;SDS011;41173;52.634;-8.666;2024-02-04T17:25:30;0.95;;;0.30;;
55310;SDS011;41173;52.634;-8.666;2024-02-04T17:28:08;0.52;;;0.10;;
55310;SDS011;41173;52.634;-8.666;2024-02-04T17:30:52;0.28;;;0.20;;
55310;SDS011;41173;52.634;-8.666;2024-02-04T17:33:25;0.32;;;0.20;;
55310;SDS011;41173;52.634;-8.666;2024-02-04T17:35:51;0.68;;;0.30;;
55310;SDS011;41173;52.634;-8.666;2024-02-04T17:38:20;0.60;;;0.20;;
55310;SDS011;41173;52.634;-8.666;2024-02-04T17:40:59;0.52;;;0.15;;
55310;SDS011;41173;52.634;-8.666;2024-02-04T17:43:25;0.55;;;0.30;;
55310;SDS011;41173;52.634;-8.666;2024-02-04T17:45:56;0.50;;;0.20;;
55310;SDS011;41173;52.634;-8.666;2024-02-04T17:48:30;0.47;;;0.25;;
55310;SDS011;41173;52.634;-8.666;2024-02-04T17:51:04;0.75;;;0.25;;
55310;SDS011;41173;52.634;-8.666;2024-02-04T17:53:35;0.73;;;0.20;;
55310;SDS011;41173;52.634;-8.666;2024-02-04T17:56:08;0.28;;;0.20;;
55310;SDS011;41173;52.634;-8.666;2024-02-04T17:58:51;0.20;;;0.20;;
55310;SDS011;41173;52.634;-8.666;2024-02-04T18:01:22;0.52;;;0.20;;
55310;SDS011;41173;52.634;-8.666;2024-02-04T18:03:53;0.35;;;0.20;;
55310;SDS011;41173;52.634;-8.666;2024-02-04T18:06:30;0.52;;;0.30;;
55310;SDS011;41173;52.634;-8.666;2024-02-04T18:09:05;0.60;;;0.20;;
55310;SDS011;41173;52.634;-8.666;2024-02-04T18:11:43;0.40;;;0.20;;
55310;SDS011;41173;52.634;-8.666;2024-02-04T18:14:09;0.52;;;0.28;;
55310;SDS011;41173;52.634;-8.666;2024-02-04T18:16:43;0.63;;;0.28;;
55310;SDS011;41173;52.634;-8.666;2024-02-04T18:19:12;0.20;;;0.10;;
55310;SDS011;41173;52.634;-8.666;2024-02-04T18:21:39;0.20;;;0.10;;
55310;SDS011;41173;52.634;-8.666;2024-02-04T18:24:10;0.63;;;0.13;;
55310;SDS011;41173;52.634;-8.666;2024-02-04T18:26:46;0.30;;;0.10;;
55310;SDS011;41173;52.634;-8.666;2024-02-04T18:29:18;0.40;;;0.20;;
55310;SDS011;41173;52.634;-8.666;2024-02-04T18:31:45;0.43;;;0.10;;
55310;SDS011;41173;52.634;-8.666;2024-02-04T18:34:12;0.10;;;0.10;;
55310;SDS011;41173;52.634;-8.666;2024-02-04T18:36:38;0.40;;;0.13;;
55310;SDS011;41173;52.634;-8.666;2024-02-04T18:39:19;0.68;;;0.30;;
55310;SDS011;41173;52.634;-8.666;2024-02-04T18:44:27;0.85;;;0.22;;
55310;SDS011;41173;52.634;-8.666;2024-02-04T18:47:01;0.35;;;0.20;;
55310;SDS011;41173;52.634;-8.666;2024-02-04T18:49:43;0.60;;;0.20;;
55310;SDS011;41173;52.634;-8.666;2024-02-04T18:52:15;0.20;;;0.10;;
55310;SDS011;41173;52.634;-8.666;2024-02-04T18:54:44;0.30;;;0.20;;
55310;SDS011;41173;52.634;-8.666;2024-02-04T18:57:10;0.60;;;0.20;;
55310;SDS011;41173;52.634;-8.666;2024-02-04T18:59:42;0.22;;;0.10;;
55310;SDS011;41173;52.634;-8.666;2024-02-04T19:02:08;0.52;;;0.20;;
55310;SDS011;41173;52.634;-8.666;2024-02-04T19:04:41;1.05;;;0.13;;
55310;SDS011;41173;52.634;-8.666;2024-02-04T19:07:07;0.60;;;0.20;;
55310;SDS011;41173;52.634;-8.666;2024-02-04T19:09:44;0.43;;;0.20;;
55310;SDS011;41173;52.634;-8.666;2024-02-04T19:12:15;0.20;;;0.20;;
55310;SDS011;41173;52.634;-8.666;2024-02-04T19:15:05;0.55;;;0.20;;
55310;SDS011;41173;52.634;-8.666;2024-02-04T19:17:37;0.32;;;0.20;;
55310;SDS011;41173;52.634;-8.666;2024-02-04T19:20:05;0.43;;;0.20;;
55310;SDS011;41173;52.634;-8.666;2024-02-04T19:22:43;1.15;;;0.20;;
55310;SDS011;41173;52.634;-8.666;2024-02-04T19:25:12;0.20;;;0.10;;
55310;SDS011;41173;52.634;-8.666;2024-02-04T19:27:54;1.15;;;0.20;;
55310;SDS011;41173;52.634;-8.666;2024-02-04T19:30:25;0.50;;;0.20;;
55310;SDS011;41173;52.634;-8.666;2024-02-04T19:32:52;0.32;;;0.10;;
55310;SDS011;41173;52.634;-8.666;2024-02-04T19:35:20;0.50;;;0.10;;
55310;SDS011;41173;52.634;-8.666;2024-02-04T19:37:47;0.98;;;0.20;;
55310;SDS011;41173;52.634;-8.666;2024-02-04T19:40:14;0.50;;;0.20;;
55310;SDS011;41173;52.634;-8.666;2024-02-04T19:42:40;0.47;;;0.10;;
55310;SDS011;41173;52.634;-8.666;2024-02-04T19:45:07;0.55;;;0.10;;
55310;SDS011;41173;52.634;-8.666;2024-02-04T19:47:33;0.55;;;0.10;;
55310;SDS011;41173;52.634;-8.666;2024-02-04T19:49:59;0.10;;;0.10;;
55310;SDS011;41173;52.634;-8.666;2024-02-04T19:52:25;0.65;;;0.10;;
55310;SDS011;41173;52.634;-8.666;2024-02-04T19:54:51;0.65;;;0.15;;
55310;SDS011;41173;52.634;-8.666;2024-02-04T19:57:17;0.53;;;0.20;;
55310;SDS011;41173;52.634;-8.666;2024-02-04T19:59:43;0.63;;;0.20;;
55310;SDS011;41173;52.634;-8.666;2024-02-04T20:02:10;0.30;;;0.10;;
55310;SDS011;41173;52.634;-8.666;2024-02-04T20:04:35;0.30;;;0.13;;
55310;SDS011;41173;52.634;-8.666;2024-02-04T20:07:01;0.40;;;0.10;;
55310;SDS011;41173;52.634;-8.666;2024-02-04T20:09:31;0.10;;;0.10;;
55310;SDS011;41173;52.634;-8.666;2024-02-04T20:11:56;0.08;;;0.00;;
55310;SDS011;41173;52.634;-8.666;2024-02-04T20:14:22;0.23;;;0.10;;
55310;SDS011;41173;52.634;-8.666;2024-02-04T20:16:49;0.20;;;0.10;;
55310;SDS011;41173;52.634;-8.666;2024-02-04T20:19:15;0.40;;;0.10;;
55310;SDS011;41173;52.634;-8.666;2024-02-04T20:21:40;0.00;;;0.00;;
55310;SDS011;41173;52.634;-8.666;2024-02-04T20:24:06;0.47;;;0.10;;
55310;SDS011;41173;52.634;-8.666;2024-02-04T20:26:33;0.30;;;0.10;;
55310;SDS011;41173;52.634;-8.666;2024-02-04T20:28:59;0.40;;;0.17;;
55310;SDS011;41173;52.634;-8.666;2024-02-04T20:31:24;0.30;;;0.10;;
55310;SDS011;41173;52.634;-8.666;2024-02-04T20:33:50;0.40;;;0.17;;
55310;SDS011;41173;52.634;-8.666;2024-02-04T20:36:15;0.23;;;0.20;;
55310;SDS011;41173;52.634;-8.666;2024-02-04T20:38:41;0.63;;;0.10;;
55310;SDS011;41173;52.634;-8.666;2024-02-04T20:41:07;0.40;;;0.10;;
55310;SDS011;41173;52.634;-8.666;2024-02-04T20:43:33;0.10;;;0.00;;
55310;SDS011;41173;52.634;-8.666;2024-02-04T20:45:59;0.25;;;0.10;;
55310;SDS011;41173;52.634;-8.666;2024-02-04T20:48:26;0.32;;;0.10;;
55310;SDS011;41173;52.634;-8.666;2024-02-04T20:50:51;0.67;;;0.10;;
55310;SDS011;41173;52.634;-8.666;2024-02-04T20:53:17;0.10;;;0.00;;
55310;SDS011;41173;52.634;-8.666;2024-02-04T20:55:43;0.33;;;0.10;;
55310;SDS011;41173;52.634;-8.666;2024-02-04T20:58:08;0.20;;;0.10;;
55310;SDS011;41173;52.634;-8.666;2024-02-04T21:00:34;0.20;;;0.10;;
55310;SDS011;41173;52.634;-8.666;2024-02-04T21:02:59;0.50;;;0.23;;
55310;SDS011;41173;52.634;-8.666;2024-02-04T21:05:24;0.50;;;0.20;;
55310;SDS011;41173;52.634;-8.666;2024-02-04T21:07:52;0.28;;;0.08;;
55310;SDS011;41173;52.634;-8.666;2024-02-04T21:10:17;0.50;;;0.20;;
55310;SDS011;41173;52.634;-8.666;2024-02-04T21:12:43;0.20;;;0.15;;
55310;SDS011;41173;52.634;-8.666;2024-02-04T21:15:09;0.40;;;0.10;;
55310;SDS011;41173;52.634;-8.666;2024-02-04T21:17:35;0.20;;;0.10;;
55310;SDS011;41173;52.634;-8.666;2024-02-04T21:20:01;0.20;;;0.10;;
55310;SDS011;41173;52.634;-8.666;2024-02-04T21:22:30;0.50;;;0.20;;
55310;SDS011;41173;52.634;-8.666;2024-02-04T21:24:55;0.20;;;0.10;;
55310;SDS011;41173;52.634;-8.666;2024-02-04T21:27:20;0.10;;;0.10;;
55310;SDS011;41173;52.634;-8.666;2024-02-04T21:29:46;0.10;;;0.00;;
55310;SDS011;41173;52.634;-8.666;2024-02-04T21:32:12;0.13;;;0.10;;
55310;SDS011;41173;52.634;-8.666;2024-02-04T21:34:37;0.10;;;0.10;;
55310;SDS011;41173;52.634;-8.666;2024-02-04T21:37:03;0.15;;;0.00;;
55310;SDS011;41173;52.634;-8.666;2024-02-04T21:39:29;0.20;;;0.10;;
55310;SDS011;41173;52.634;-8.666;2024-02-04T21:41:55;0.15;;;0.00;;
55310;SDS011;41173;52.634;-8.666;2024-02-04T21:44:21;0.27;;;0.10;;
55310;SDS011;41173;52.634;-8.666;2024-02-04T21:46:47;0.30;;;0.10;;
55310;SDS011;41173;52.634;-8.666;2024-02-04T21:49:13;0.28;;;0.10;;
55310;SDS011;41173;52.634;-8.666;2024-02-04T21:51:39;0.30;;;0.10;;
55310;SDS011;41173;52.634;-8.666;2024-02-04T21:54:04;0.23;;;0.10;;
55310;SDS011;41173;52.634;-8.666;2024-02-04T21:56:30;0.40;;;0.10;;
55310;SDS011;41173;52.634;-8.666;2024-02-04T21:58:56;0.30;;;0.10;;
55310;SDS011;41173;52.634;-8.666;2024-02-04T22:01:21;0.20;;;0.10;;
55310;SDS011;41173;52.634;-8.666;2024-02-04T22:03:47;0.60;;;0.17;;
55310;SDS011;41173;52.634;-8.666;2024-02-04T22:06:13;0.65;;;0.10;;
55310;SDS011;41173;52.634;-8.666;2024-02-04T22:08:39;0.57;;;0.00;;
55310;SDS011;41173;52.634;-8.666;2024-02-04T22:13:31;0.40;;;0.10;;
55310;SDS011;41173;52.634;-8.666;2024-02-04T22:15:56;0.20;;;0.00;;
55310;SDS011;41173;52.634;-8.666;2024-02-04T22:18:22;0.30;;;0.10;;
55310;SDS011;41173;52.634;-8.666;2024-02-04T22:20:47;0.07;;;0.00;;
55310;SDS011;41173;52.634;-8.666;2024-02-04T22:23:13;0.10;;;0.00;;
55310;SDS011;41173;52.634;-8.666;2024-02-04T22:28:06;0.28;;;0.10;;
55310;SDS011;41173;52.634;-8.666;2024-02-04T22:30:32;0.28;;;0.10;;
55310;SDS011;41173;52.634;-8.666;2024-02-04T22:32:57;0.30;;;0.10;;
55310;SDS011;41173;52.634;-8.666;2024-02-04T22:35:23;0.50;;;0.10;;
55310;SDS011;41173;52.634;-8.666;2024-02-04T22:37:49;0.43;;;0.20;;
55310;SDS011;41173;52.634;-8.666;2024-02-04T22:40:15;0.20;;;0.10;;
55310;SDS011;41173;52.634;-8.666;2024-02-04T22:42:41;0.10;;;0.10;;
55310;SDS011;41173;52.634;-8.666;2024-02-04T22:45:07;0.20;;;0.10;;
55310;SDS011;41173;52.634;-8.666;2024-02-04T22:49:59;0.10;;;0.00;;
55310;SDS011;41173;52.634;-8.666;2024-02-04T22:52:24;0.00;;;0.00;;
55310;SDS011;41173;52.634;-8.666;2024-02-04T22:54:49;0.40;;;0.17;;
55310;SDS011;41173;52.634;-8.666;2024-02-04T22:57:15;0.37;;;0.10;;
55310;SDS011;41173;52.634;-8.666;2024-02-04T22:59:41;0.30;;;0.10;;
55310;SDS011;41173;52.634;-8.666;2024-02-04T23:02:07;0.20;;;0.10;;
55310;SDS011;41173;52.634;-8.666;2024-02-04T23:04:33;0.07;;;0.07;;
55310;SDS011;41173;52.634;-8.666;2024-02-04T23:07:01;0.10;;;0.03;;
55310;SDS011;41173;52.634;-8.666;2024-02-04T23:09:31;0.20;;;0.00;;
55310;SDS011;41173;52.634;-8.666;2024-02-04T23:11:57;0.20;;;0.10;;
55310;SDS011;41173;52.634;-8.666;2024-02-04T23:14:23;0.05;;;0.00;;
55310;SDS011;41173;52.634;-8.666;2024-02-04T23:16:49;0.22;;;0.10;;
55310;SDS011;41173;52.634;-8.666;2024-02-04T23:19:15;0.40;;;0.15;;
55310;SDS011;41173;52.634;-8.666;2024-02-04T23:21:44;0.00;;;0.00;;
55310;SDS011;41173;52.634;-8.666;2024-02-04T23:24:13;0.20;;;0.10;;
55310;SDS011;41173;52.634;-8.666;2024-02-04T23:26:38;0.27;;;0.00;;
55310;SDS011;41173;52.634;-8.666;2024-02-04T23:29:04;0.33;;;0.10;;
55310;SDS011;41173;52.634;-8.666;2024-02-04T23:31:30;0.15;;;0.08;;
55310;SDS011;41173;52.634;-8.666;2024-02-04T23:33:55;0.00;;;0.00;;
55310;SDS011;41173;52.634;-8.666;2024-02-04T23:36:22;0.10;;;0.00;;
55310;SDS011;41173;52.634;-8.666;2024-02-04T23:38:48;0.52;;;0.10;;
55310;SDS011;41173;52.634;-8.666;2024-02-04T23:41:13;0.10;;;0.10;;
55310;SDS011;41173;52.634;-8.666;2024-02-04T23:43:39;0.60;;;0.10;;
55310;SDS011;41173;52.634;-8.666;2024-02-04T23:46:04;0.00;;;0.00;;
55310;SDS011;41173;52.634;-8.666;2024-02-04T23:48:31;0.10;;;0.00;;
55310;SDS011;41173;52.634;-8.666;2024-02-04T23:50:57;0.10;;;0.05;;
55310;SDS011;41173;52.634;-8.666;2024-02-04T23:53:22;0.10;;;0.00;;
55310;SDS011;41173;52.634;-8.666;2024-02-04T23:55:48;0.20;;;0.00;;
55310;SDS011;41173;52.634;-8.666;2024-02-04T23:58:13;0.00;;;0.00;;
